Time;durP1;ratioP1;P1;durP2;ratioP2;P2;SDS_P1;SDS_P2;PMS_P1;PMS_P2;Temp;Humidity;BMP_temperature;BMP_pressure;BME280_temperature;BME280_humidity;BME280_pressure;Samples;Min_cycle;Max_cycle;Signal;HPM_P1;HPM_P2
2022/08/17 00:01:52;;;;;;;10.70;5.50;;;27.40;47.60;26.30;100647.00;;;;5085905;28;20036;-67
2022/08/17 00:04:38;;;;;;;10.25;5.35;;;27.40;47.00;26.30;100646.00;;;;5085321;28;20428;-67
2022/08/17 00:07:24;;;;;;;8.00;5.45;;;27.40;47.00;26.30;100638.00;;;;5085630;28;20111;-67
2022/08/17 00:10:10;;;;;;;9.07;5.60;;;27.40;47.00;26.30;100644.00;;;;5065177;28;20452;-67
2022/08/17 00:12:56;;;;;;;14.05;5.57;;;27.40;47.00;26.30;100641.00;;;;5070974;28;20408;-67
2022/08/17 00:15:43;;;;;;;8.52;5.93;;;27.40;47.10;26.30;100636.00;;;;5086407;28;20080;-67
2022/08/17 00:18:30;;;;;;;11.93;5.97;;;27.40;47.10;26.30;100633.00;;;;5082285;28;20048;-67
2022/08/17 00:21:18;;;;;;;9.95;6.13;;;27.40;47.20;26.30;100626.00;;;;5073096;28;20047;-67
2022/08/17 00:24:04;;;;;;;8.68;5.55;;;27.40;47.20;26.30;100630.00;;;;5073064;28;20401;-67
2022/08/17 00:26:51;;;;;;;6.85;5.25;;;27.40;47.20;26.30;100628.00;;;;5079992;28;20165;-67
2022/08/17 00:29:37;;;;;;;9.10;5.38;;;27.40;47.20;26.30;100622.00;;;;5086900;28;20051;-67
2022/08/17 00:32:23;;;;;;;9.23;5.30;;;27.40;47.20;26.30;100624.00;;;;5072970;28;20508;-67
2022/08/17 00:35:10;;;;;;;6.38;4.78;;;27.40;47.20;26.30;100634.00;;;;5071704;28;20040;-67
2022/08/17 00:37:56;;;;;;;8.98;6.10;;;27.40;47.20;26.30;100624.00;;;;5056407;28;20098;-67
2022/08/17 00:40:46;;;;;;;7.97;6.18;;;27.40;47.40;26.30;100628.00;;;;5087175;28;20052;-67
2022/08/17 00:44:08;;;;;;;8.57;6.80;;;27.40;47.50;26.30;100624.00;;;;5070446;28;20046;-67
2022/08/17 00:46:54;;;;;;;12.82;7.57;;;27.40;47.50;26.30;100620.00;;;;5063035;28;22541;-67
2022/08/17 00:49:40;;;;;;;7.25;5.18;;;27.40;47.50;26.30;100621.00;;;;5076339;28;20517;-67
2022/08/17 00:52:34;;;;;;;7.72;5.38;;;27.40;47.40;26.30;100607.00;;;;5081245;28;20035;-67
2022/08/17 00:55:21;;;;;;;7.47;5.18;;;27.40;47.40;26.30;100604.00;;;;5056475;28;20040;-67
2022/08/17 00:58:07;;;;;;;7.05;5.47;;;27.40;47.30;26.30;100612.00;;;;5059124;28;20614;-67
2022/08/17 01:00:53;;;;;;;7.05;5.15;;;27.40;47.30;26.30;100610.00;;;;5077109;28;20879;-67
2022/08/17 01:03:39;;;;;;;11.35;5.82;;;27.30;47.20;26.30;100604.00;;;;5071082;28;20040;-67
2022/08/17 01:06:25;;;;;;;10.25;6.57;;;27.30;47.30;26.30;100607.00;;;;5070430;28;20485;-67
2022/08/17 01:09:13;;;;;;;8.05;5.90;;;27.40;47.50;26.30;100608.00;;;;5068891;28;20379;-67
2022/08/17 01:11:59;;;;;;;7.55;6.65;;;27.40;47.50;26.30;100618.00;;;;5071447;28;20044;-67
2022/08/17 01:14:45;;;;;;;7.13;6.43;;;27.40;47.50;26.30;100617.00;;;;5067200;28;20036;-67
2022/08/17 01:17:31;;;;;;;7.25;5.65;;;27.40;47.50;26.30;100614.00;;;;5072164;28;20127;-67
2022/08/17 01:20:18;;;;;;;9.15;7.20;;;27.30;47.40;26.30;100608.00;;;;5060833;28;20117;-67
2022/08/17 01:23:04;;;;;;;11.65;6.78;;;27.40;47.50;26.30;100619.00;;;;5072588;28;20032;-67
2022/08/17 01:25:52;;;;;;;13.07;6.57;;;27.40;47.50;26.30;100611.00;;;;5082485;28;20501;-67
2022/08/17 01:28:38;;;;;;;9.77;6.68;;;27.40;47.50;26.30;100607.00;;;;5069998;28;20044;-67
2022/08/17 01:31:27;;;;;;;10.05;6.88;;;27.40;47.50;26.30;100617.00;;;;5064888;28;20127;-67
2022/08/17 01:34:15;;;;;;;11.20;6.65;;;27.30;47.50;26.30;100607.00;;;;5071994;28;20044;-67
2022/08/17 01:37:01;;;;;;;7.35;6.60;;;27.30;47.50;26.30;100602.00;;;;5068866;28;20048;-67
2022/08/17 01:39:54;;;;;;;6.95;5.13;;;27.30;47.40;26.30;100600.00;;;;5068142;28;20448;-67
2022/08/17 01:42:55;;;;;;;7.32;6.45;;;27.40;47.50;26.30;100604.00;;;;5066102;28;20430;-67
2022/08/17 01:45:47;;;;;;;6.88;6.07;;;27.30;47.40;26.30;100598.00;;;;5073239;28;20040;-67
2022/08/17 01:48:38;;;;;;;12.20;6.00;;;27.40;47.50;26.30;100594.00;;;;5055313;28;20134;-67
2022/08/17 01:51:28;;;;;;;8.20;5.63;;;27.30;47.40;26.30;100597.00;;;;5071786;28;20145;-67
2022/08/17 01:54:16;;;;;;;7.30;5.40;;;27.30;47.40;26.30;100599.00;;;;5071045;28;20043;-67
2022/08/17 01:57:02;;;;;;;7.40;5.40;;;27.30;47.40;26.30;100592.00;;;;5071112;28;20430;-67
2022/08/17 01:59:48;;;;;;;8.65;5.30;;;27.30;47.40;26.20;100596.00;;;;5084464;28;20048;-67
2022/08/17 02:02:34;;;;;;;7.55;4.97;;;27.30;47.40;26.20;100590.00;;;;5082628;28;20143;-67
2022/08/17 02:05:20;;;;;;;7.22;5.20;;;27.30;47.40;26.20;100595.00;;;;5087702;28;20036;-67
2022/08/17 02:08:06;;;;;;;5.43;4.93;;;27.30;47.40;26.20;100595.00;;;;5072143;28;20048;-67
2022/08/17 02:10:53;;;;;;;6.70;4.90;;;27.30;47.40;26.20;100597.00;;;;5087639;28;20043;-67
2022/08/17 02:13:40;;;;;;;7.18;5.05;;;27.30;47.40;26.20;100602.00;;;;5089758;28;20409;-67
2022/08/17 02:16:26;;;;;;;6.55;5.13;;;27.30;47.40;26.20;100596.00;;;;5088795;28;20071;-67
2022/08/17 02:19:14;;;;;;;7.10;5.20;;;27.30;47.40;26.20;100600.00;;;;5074377;28;20109;-67
2022/08/17 02:22:00;;;;;;;6.93;4.53;;;27.30;47.40;26.20;100602.00;;;;5086681;28;20074;-67
2022/08/17 02:24:46;;;;;;;7.40;4.93;;;27.30;47.40;26.20;100603.00;;;;5088180;28;20082;-67
2022/08/17 02:27:32;;;;;;;7.15;5.38;;;27.30;47.40;26.20;100604.00;;;;5086866;28;20040;-67
2022/08/17 02:30:19;;;;;;;7.65;5.35;;;27.30;47.40;26.20;100602.00;;;;5088334;28;20640;-67
2022/08/17 02:33:07;;;;;;;5.20;4.70;;;27.30;47.40;26.20;100594.00;;;;5090684;28;20140;-67
2022/08/17 02:35:53;;;;;;;5.68;4.63;;;27.20;47.30;26.20;100594.00;;;;5084180;28;20273;-67
2022/08/17 02:38:39;;;;;;;7.15;5.22;;;27.30;47.40;26.20;100598.00;;;;5090441;28;20039;-67
2022/08/17 02:41:26;;;;;;;7.63;5.32;;;27.20;47.30;26.20;100606.00;;;;5075113;28;20044;-67
2022/08/17 02:44:12;;;;;;;6.50;5.30;;;27.30;47.50;26.20;100590.00;;;;5080212;28;20402;-67
2022/08/17 02:46:58;;;;;;;5.18;4.65;;;27.20;47.40;26.20;100590.00;;;;5083646;28;20045;-67
2022/08/17 02:49:45;;;;;;;6.28;4.65;;;27.20;47.40;26.20;100592.00;;;;5089322;28;20131;-67
2022/08/17 02:52:36;;;;;;;6.35;4.43;;;27.30;47.50;26.20;100601.00;;;;5086392;28;20032;-67
2022/08/17 02:55:26;;;;;;;5.18;4.68;;;27.30;47.50;26.20;100592.00;;;;5076080;28;20043;-67
2022/08/17 02:58:13;;;;;;;6.85;5.15;;;27.30;47.50;26.20;100596.00;;;;5070962;28;20040;-67
2022/08/17 03:00:59;;;;;;;5.65;5.03;;;27.20;47.40;26.20;100593.00;;;;5073824;28;20035;-67
2022/08/17 03:03:45;;;;;;;5.97;5.35;;;27.30;47.60;26.20;100594.00;;;;5074713;28;20489;-67
2022/08/17 03:06:31;;;;;;;5.80;5.05;;;27.20;47.50;26.20;100592.00;;;;5090508;28;20085;-67
2022/08/17 03:09:17;;;;;;;6.57;5.10;;;27.20;47.50;26.20;100588.00;;;;5088155;28;20067;-67
2022/08/17 03:12:05;;;;;;;7.38;4.65;;;27.20;47.50;26.20;100590.00;;;;5074731;28;20095;-67
2022/08/17 03:14:52;;;;;;;6.15;4.93;;;27.20;47.50;26.20;100587.00;;;;5081109;28;20043;-67
2022/08/17 03:17:38;;;;;;;6.00;4.43;;;27.20;47.50;26.20;100586.00;;;;5085111;28;20425;-67
2022/08/17 03:20:25;;;;;;;5.85;5.18;;;27.20;47.50;26.20;100587.00;;;;5093113;28;20245;-67
2022/08/17 03:23:11;;;;;;;7.05;5.25;;;27.20;47.60;26.20;100589.00;;;;5073733;28;20400;-67
2022/08/17 03:25:57;;;;;;;5.93;5.32;;;27.20;47.60;26.20;100581.00;;;;5089385;28;20320;-67
2022/08/17 03:28:43;;;;;;;6.27;5.07;;;27.20;47.60;26.20;100589.00;;;;5071290;28;20040;-67
2022/08/17 03:31:30;;;;;;;5.80;5.20;;;27.20;47.60;26.10;100586.00;;;;5085358;28;20043;-67
2022/08/17 03:34:16;;;;;;;8.13;5.20;;;27.20;47.60;26.10;100577.00;;;;5092721;28;20039;-67
2022/08/17 03:37:02;;;;;;;5.03;4.53;;;27.20;47.70;26.10;100583.00;;;;5074144;28;20044;-67
2022/08/17 03:39:48;;;;;;;5.53;4.80;;;27.20;47.70;26.10;100588.00;;;;5091962;28;20044;-67
2022/08/17 03:42:36;;;;;;;6.43;4.85;;;27.20;47.60;26.10;100582.00;;;;5089285;28;20048;-67
2022/08/17 03:57:47;;;;;;;4.85;4.28;;;27.10;47.70;26.10;100578.00;;;;5077153;28;20044;-67
2022/08/17 04:00:35;;;;;;;5.15;4.70;;;27.10;47.70;26.10;100576.00;;;;5081537;28;20158;-67
2022/08/17 04:03:21;;;;;;;4.75;4.28;;;27.10;47.70;26.10;100577.00;;;;5071519;28;20044;-67
2022/08/17 04:06:07;;;;;;;4.93;4.43;;;27.10;47.70;26.00;100576.00;;;;5085611;28;20039;-67
2022/08/17 04:08:53;;;;;;;4.55;4.15;;;27.10;47.80;26.00;100578.00;;;;5082672;28;20045;-67
2022/08/17 04:11:39;;;;;;;5.65;5.05;;;27.10;47.80;26.00;100591.00;;;;5085047;28;20036;-67
2022/08/17 04:14:25;;;;;;;5.70;4.70;;;27.00;47.70;26.00;100591.00;;;;5081680;28;20045;-67
2022/08/17 04:17:11;;;;;;;5.22;4.68;;;27.10;47.80;26.00;100598.00;;;;5073163;28;20036;-67
2022/08/17 04:19:57;;;;;;;6.75;5.50;;;27.00;47.70;26.00;100598.00;;;;5081640;28;20040;-67
2022/08/17 04:23:10;;;;;;;5.30;4.53;;;27.00;47.60;26.00;100596.00;;;;5082081;28;20048;-67
2022/08/17 04:25:56;;;;;;;5.45;4.85;;;27.00;47.70;26.00;100602.00;;;;5068341;28;20036;-67
2022/08/17 04:28:42;;;;;;;5.88;4.95;;;27.00;47.70;26.00;100600.00;;;;5083427;28;20037;-67
2022/08/17 04:31:29;;;;;;;6.68;5.38;;;27.00;47.70;26.00;100600.00;;;;5069037;28;20092;-67
2022/08/17 04:34:15;;;;;;;5.78;5.28;;;26.90;47.70;26.00;100604.00;;;;5084176;28;20124;-67
2022/08/17 04:37:01;;;;;;;5.50;4.47;;;27.00;47.90;26.00;100613.00;;;;5069709;28;20056;-67
2022/08/17 04:42:05;;;;;;;6.03;4.78;;;26.90;47.80;26.00;100622.00;;;;5085391;28;20319;-67
2022/08/17 04:43:06;;;;;;;5.07;4.57;;;26.90;47.80;26.00;100617.00;;;;5085764;28;20074;-67
2022/08/17 04:45:56;;;;;;;6.75;4.45;;;26.90;47.80;26.00;100619.00;;;;5073597;28;20112;-67
2022/08/17 04:48:45;;;;;;;7.95;4.60;;;27.00;47.80;26.00;100626.00;;;;5068136;28;21089;-67
2022/08/17 04:51:44;;;;;;;7.80;4.97;;;27.00;47.80;26.00;100624.00;;;;5068729;28;20051;-67
2022/08/17 04:54:30;;;;;;;4.95;4.50;;;26.90;47.70;26.00;100621.00;;;;5070103;28;20035;-67
2022/08/17 04:57:16;;;;;;;6.03;4.63;;;26.90;47.80;26.00;100622.00;;;;5074776;28;20044;-67
2022/08/17 05:00:04;;;;;;;5.28;4.22;;;26.90;47.80;25.90;100625.00;;;;5081383;28;20052;-67
2022/08/17 05:02:52;;;;;;;5.20;4.70;;;26.90;47.80;26.00;100624.00;;;;5082536;28;20118;-67
2022/08/17 05:05:41;;;;;;;;;;;26.80;47.80;25.90;100624.00;;;;5068242;28;21815;-67
2022/08/17 05:08:28;;;;;;;4.70;4.15;;;26.90;47.80;25.90;100624.00;;;;5084707;28;19916;-67
2022/08/17 05:11:14;;;;;;;5.07;3.90;;;27.00;47.80;25.90;100624.00;;;;5087054;28;20039;-67
2022/08/17 05:14:00;;;;;;;5.20;4.70;;;26.90;47.80;25.90;100632.00;;;;5067542;28;20524;-67
2022/08/17 05:16:48;;;;;;;6.13;4.80;;;26.90;47.80;25.90;100634.00;;;;5073745;28;20115;-67
2022/08/17 05:19:34;;;;;;;5.60;4.20;;;26.90;47.80;25.90;100640.00;;;;5084894;28;20040;-67
2022/08/17 05:22:20;;;;;;;6.05;4.43;;;26.90;47.90;25.90;100645.00;;;;5086258;28;20485;-67
2022/08/17 05:25:07;;;;;;;5.28;4.38;;;26.90;47.80;25.90;100639.00;;;;5081523;28;20044;-67
2022/08/17 05:27:53;;;;;;;;;;;26.90;47.90;25.90;100645.00;;;;5082224;28;20471;-67
2022/08/17 05:30:41;;;;;;;5.80;4.65;;;26.90;47.80;25.90;100645.00;;;;5069437;28;20397;-67
2022/08/17 05:33:30;;;;;;;5.85;5.25;;;26.90;47.90;25.90;100643.00;;;;5078286;28;20564;-67
2022/08/17 05:36:17;;;;;;;7.03;5.22;;;27.00;48.10;25.90;100630.00;;;;5068164;28;20043;-67
2022/08/17 05:39:03;;;;;;;6.35;5.13;;;26.80;48.10;25.90;100643.00;;;;5052633;28;20048;-67
2022/08/17 05:41:49;;;;;;;5.78;4.38;;;26.90;48.10;25.90;100636.00;;;;5087470;28;20048;-67
2022/08/17 05:44:35;;;;;;;5.78;4.75;;;26.90;48.10;25.90;100629.00;;;;5084414;28;20473;-67
2022/08/17 05:47:21;;;;;;;5.20;4.70;;;26.90;48.10;25.90;100646.00;;;;5085922;28;20048;-67
2022/08/17 05:50:07;;;;;;;6.00;4.90;;;26.90;48.00;25.90;100629.00;;;;5072739;28;20471;-67
2022/08/17 05:53:15;;;;;;;5.28;4.72;;;26.90;48.00;25.90;100632.00;;;;5059869;28;20040;-67
2022/08/17 05:56:52;;;;;;;5.38;4.53;;;26.90;48.10;25.90;100635.00;;;;5073151;28;20040;-67
2022/08/17 05:59:53;;;;;;;5.68;4.47;;;26.90;48.10;25.90;100629.00;;;;5050302;28;20135;-67
2022/08/17 06:03:04;;;;;;;5.07;4.55;;;26.90;48.10;25.90;100625.00;;;;5088195;28;20052;-67
2022/08/17 06:06:15;;;;;;;4.75;4.35;;;26.90;48.10;25.90;100631.00;;;;5090730;28;20051;-67
2022/08/17 06:09:24;;;;;;;4.68;4.28;;;26.90;48.10;25.90;100633.00;;;;5072952;28;20525;-67
2022/08/17 06:12:33;;;;;;;;;;;26.90;48.10;25.80;100620.00;;;;5072726;28;20113;-67
2022/08/17 06:15:29;;;;;;;4.80;4.13;;;26.90;48.00;25.80;100621.00;;;;5074807;28;19920;-67
2022/08/17 06:18:15;;;;;;;4.85;4.43;;;26.90;48.00;25.90;100617.00;;;;5067567;28;20245;-67
2022/08/17 06:21:04;;;;;;;4.65;4.25;;;27.00;48.10;25.90;100617.00;;;;5075370;28;20505;-67
2022/08/17 06:23:56;;;;;;;5.35;4.47;;;26.90;48.00;25.90;100615.00;;;;5077035;28;20500;-67
2022/08/17 06:26:44;;;;;;;6.97;4.15;;;26.90;48.10;25.90;100615.00;;;;5070706;28;20047;-67
2022/08/17 06:29:37;;;;;;;4.80;4.05;;;26.90;48.10;25.90;100611.00;;;;5074829;28;20492;-67
2022/08/17 06:32:23;;;;;;;5.05;4.60;;;26.90;48.10;25.90;100608.00;;;;5071859;28;20471;-67
2022/08/17 06:35:12;;;;;;;8.13;4.05;;;26.90;48.10;25.90;100600.00;;;;5075969;28;20044;-67
2022/08/17 06:38:21;;;;;;;5.03;4.53;;;27.00;48.30;25.90;100598.00;;;;5063796;28;20052;-67
2022/08/17 06:41:43;;;;;;;5.22;4.25;;;26.90;48.20;25.90;100606.00;;;;5074155;28;20496;-67
2022/08/17 06:44:46;;;;;;;4.88;3.90;;;27.00;48.20;25.90;100603.00;;;;5060851;28;20115;-67
2022/08/17 06:48:11;;;;;;;5.28;3.92;;;27.00;48.20;25.90;100614.00;;;;5063634;28;20063;-67
2022/08/17 06:51:02;;;;;;;5.18;4.68;;;27.00;48.20;25.90;100611.00;;;;5072180;28;20040;-67
2022/08/17 06:54:05;;;;;;;4.43;4.03;;;27.00;48.20;25.90;100607.00;;;;5074333;28;20485;-67
2022/08/17 06:57:06;;;;;;;4.93;4.50;;;27.00;48.20;25.90;100605.00;;;;5074748;28;20081;-67
2022/08/17 07:00:18;;;;;;;5.03;4.15;;;27.00;48.20;25.90;100603.00;;;;5069396;28;20089;-67
2022/08/17 07:03:07;;;;;;;7.63;4.40;;;27.00;48.20;25.90;100604.00;;;;5062493;28;20152;-67
2022/08/17 07:06:05;;;;;;;5.13;4.35;;;27.00;48.10;25.90;100605.00;;;;5086464;28;20078;-67
2022/08/17 07:09:04;;;;;;;5.57;4.18;;;27.00;48.10;25.90;100608.00;;;;5070334;28;20409;-67
2022/08/17 07:12:01;;;;;;;5.47;4.38;;;27.00;48.10;25.90;100615.00;;;;5075283;28;20522;-67
2022/08/17 07:14:54;;;;;;;5.85;4.47;;;27.00;48.10;26.00;100607.00;;;;5056585;28;20158;-67
2022/08/17 07:17:41;;;;;;;5.20;4.70;;;27.00;48.10;26.00;100617.00;;;;5059647;28;20047;-67
2022/08/17 07:20:27;;;;;;;5.20;4.10;;;27.00;48.00;26.00;100610.00;;;;5075537;28;20146;-67
2022/08/17 07:23:37;;;;;;;7.03;4.55;;;27.00;48.00;25.90;100614.00;;;;5074044;28;20048;-67
2022/08/17 07:26:23;;;;;;;5.43;4.68;;;27.00;48.10;26.00;100618.00;;;;5065121;28;20048;-67
2022/08/17 07:29:09;;;;;;;5.63;4.25;;;27.10;48.10;26.00;100617.00;;;;5090211;28;20031;-67
2022/08/17 07:31:56;;;;;;;4.45;4.05;;;27.10;48.10;26.00;100620.00;;;;5073788;28;20048;-67
2022/08/17 07:35:09;;;;;;;4.82;4.35;;;27.00;48.10;26.00;100623.00;;;;5078485;28;20584;-67
2022/08/17 07:38:15;;;;;;;4.53;4.13;;;27.00;48.10;26.00;100616.00;;;;5085148;28;20135;-67
2022/08/17 07:41:06;;;;;;;4.35;3.90;;;27.00;48.10;26.00;100621.00;;;;5074552;28;20040;-67
2022/08/17 07:43:52;;;;;;;4.93;4.30;;;27.00;48.10;26.00;100622.00;;;;5074735;28;20086;-67
2022/08/17 07:49:56;;;;;;;5.50;3.85;;;27.00;48.10;26.00;100617.00;;;;5075896;28;20065;-67
2022/08/17 07:52:42;;;;;;;4.32;3.90;;;27.10;48.20;26.00;100621.00;;;;5059136;28;20079;-67
2022/08/17 07:55:31;;;;;;;4.95;4.20;;;27.10;48.10;26.00;100622.00;;;;5089372;28;20040;-67
2022/08/17 07:58:20;;;;;;;5.97;3.90;;;27.10;48.10;26.00;100616.00;;;;5085623;28;20058;-67
2022/08/17 08:01:09;;;;;;;4.38;3.90;;;27.10;48.10;26.00;100619.00;;;;5065777;28;20040;-67
2022/08/17 08:03:56;;;;;;;4.25;3.80;;;27.10;48.20;26.00;100620.00;;;;5073449;28;20036;-67
2022/08/17 08:06:53;;;;;;;3.63;3.28;;;27.10;48.20;26.00;100620.00;;;;5072555;28;20032;-67
2022/08/17 08:09:44;;;;;;;4.80;3.80;;;27.10;48.20;26.00;100622.00;;;;5067522;28;20032;-67
2022/08/17 08:12:38;;;;;;;5.00;4.15;;;27.10;48.20;26.00;100620.00;;;;5069320;28;20071;-67
2022/08/17 08:15:33;;;;;;;4.38;4.00;;;27.10;48.20;26.00;100611.00;;;;5073495;28;20494;-67
2022/08/17 08:18:44;;;;;;;5.82;4.05;;;27.10;48.20;26.00;100616.00;;;;5070974;28;20098;-66
2022/08/17 08:21:50;;;;;;;4.00;3.55;;;27.10;48.20;26.00;100618.00;;;;5085906;28;20647;-67
2022/08/17 08:24:59;;;;;;;6.70;4.22;;;27.10;48.10;26.00;100632.00;;;;5058712;28;20464;-67
2022/08/17 08:28:26;;;;;;;4.57;3.88;;;27.10;48.20;26.00;100627.00;;;;5066507;28;20032;-67
2022/08/17 08:31:45;;;;;;;4.40;3.42;;;27.10;48.20;25.90;100628.00;;;;5072278;28;20550;-67
2022/08/17 08:35:11;;;;;;;6.57;3.50;;;27.10;48.20;25.90;100622.00;;;;5084929;28;20040;-67
2022/08/17 08:38:38;;;;;;;4.13;3.63;;;27.10;48.20;25.90;100622.00;;;;5072374;28;20048;-67
2022/08/17 08:41:40;;;;;;;4.22;3.83;;;27.10;48.20;25.90;100618.00;;;;5073960;28;20048;-67
2022/08/17 08:44:53;;;;;;;4.05;3.67;;;27.10;48.30;25.90;100620.00;;;;5058810;28;20066;-67
2022/08/17 08:48:08;;;;;;;3.85;3.50;;;27.10;48.20;25.90;100626.00;;;;5070876;28;20044;-67
2022/08/17 08:51:15;;;;;;;4.10;3.72;;;27.10;48.20;25.90;100631.00;;;;5063909;28;20130;-67
2022/08/17 08:54:21;;;;;;;4.20;3.65;;;27.10;48.30;25.90;100625.00;;;;5073414;28;20105;-67
2022/08/17 08:57:16;;;;;;;4.20;3.60;;;27.10;48.30;25.90;100626.00;;;;5060520;28;20326;-67
2022/08/17 09:00:21;;;;;;;5.15;3.50;;;27.10;48.20;25.90;100625.00;;;;5071886;28;20071;-67
2022/08/17 09:03:35;;;;;;;3.90;3.50;;;27.10;48.20;25.90;100623.00;;;;5085965;28;20478;-67
2022/08/17 09:06:34;;;;;;;4.05;3.65;;;27.10;48.20;25.90;100620.00;;;;5087677;28;20036;-67
2022/08/17 09:09:29;;;;;;;;;;;27.10;48.20;25.90;100621.00;;;;5056703;28;20040;-67
2022/08/17 09:12:22;;;;;;;6.60;3.80;;;27.10;48.10;25.90;100615.00;;;;5084303;28;19912;-67
2022/08/17 09:15:19;;;;;;;3.63;3.33;;;27.10;48.10;25.90;100624.00;;;;5075577;28;20617;-67
2022/08/17 09:18:18;;;;;;;4.38;3.15;;;27.10;48.10;25.90;100615.00;;;;5071289;28;20140;-67
2022/08/17 09:21:36;;;;;;;4.75;3.45;;;27.10;48.10;25.90;100621.00;;;;5059897;28;20040;-67
2022/08/17 09:24:56;;;;;;;6.03;3.83;;;27.10;48.20;25.90;100623.00;;;;5073467;28;20050;-67
2022/08/17 09:27:53;;;;;;;;;;;27.10;48.20;25.90;100618.00;;;;5064654;28;20106;-67
2022/08/17 09:30:46;;;;;;;3.67;3.20;;;27.10;48.10;25.90;100616.00;;;;5079815;28;19969;-67
2022/08/17 09:33:38;;;;;;;4.05;3.28;;;27.10;48.20;25.90;100622.00;;;;5069822;28;20039;-67
2022/08/17 09:36:32;;;;;;;4.78;3.30;;;27.10;48.20;25.90;100616.00;;;;5060566;28;20075;-67
2022/08/17 09:39:26;;;;;;;5.00;3.30;;;27.10;48.30;25.90;100620.00;;;;5072793;28;20044;-67
2022/08/17 09:42:25;;;;;;;4.30;3.90;;;27.10;48.30;25.90;100618.00;;;;5059032;28;20086;-67
2022/08/17 09:45:44;;;;;;;3.25;2.88;;;27.00;48.10;25.90;100622.00;;;;5072337;28;20040;-67
2022/08/17 09:48:43;;;;;;;3.75;3.35;;;27.10;48.20;25.90;100617.00;;;;5072800;28;20758;-67
2022/08/17 09:51:38;;;;;;;5.32;3.10;;;27.10;48.20;25.90;100613.00;;;;5061725;28;20037;-67
2022/08/17 09:54:31;;;;;;;3.97;3.38;;;27.10;48.20;25.90;100617.00;;;;5059223;28;20063;-67
2022/08/17 09:57:39;;;;;;;3.50;3.20;;;27.10;48.10;25.90;100626.00;;;;5057963;28;20121;-67
2022/08/17 10:00:29;;;;;;;;;;;27.10;48.20;25.90;100617.00;;;;5068657;28;20119;-67
2022/08/17 10:03:27;;;;;;;3.58;3.13;;;27.10;48.10;25.90;100616.00;;;;5068584;28;20419;-67
2022/08/17 10:06:37;;;;;;;3.35;3.05;;;27.10;48.10;25.90;100609.00;;;;5087121;28;20116;-67
2022/08/17 10:09:32;;;;;;;3.78;3.35;;;27.10;48.10;25.90;100607.00;;;;5061062;28;20040;-67
2022/08/17 10:12:42;;;;;;;4.13;3.22;;;27.10;48.10;25.90;100607.00;;;;5071574;28;20112;-67
2022/08/17 10:16:01;;;;;;;3.78;2.90;;;27.10;48.10;25.90;100602.00;;;;5074808;28;20115;-67
2022/08/17 10:19:02;;;;;;;4.63;3.50;;;27.10;48.10;25.90;100611.00;;;;5085609;28;20047;-67
2022/08/17 10:28:05;;;;;;;3.40;3.10;;;27.10;48.00;25.90;100614.00;;;;5076783;28;20040;-67
2022/08/17 10:30:54;;;;;;;4.57;3.15;;;27.10;48.00;25.90;100601.00;;;;5077989;28;20031;-67
2022/08/17 10:34:35;;;;;;;3.28;2.97;;;27.10;47.90;25.90;100586.00;;;;5075293;28;20036;-67
2022/08/17 10:37:45;;;;;;;3.45;2.95;;;27.10;48.00;25.90;100595.00;;;;5087675;28;20067;-67
2022/08/17 10:41:00;;;;;;;3.50;3.00;;;27.10;48.70;25.90;100600.00;;;;5083867;28;20027;-67
2022/08/17 10:43:56;;;;;;;2.53;2.33;;;27.10;48.10;25.90;100598.00;;;;5067977;28;20032;-67
2022/08/17 10:47:04;;;;;;;5.38;2.88;;;27.10;48.10;25.90;100599.00;;;;5074513;28;20133;-67
2022/08/17 10:49:54;;;;;;;3.35;2.67;;;27.10;48.10;25.90;100600.00;;;;5090987;28;20364;-67
2022/08/17 10:52:41;;;;;;;3.13;2.83;;;27.10;48.00;26.00;100599.00;;;;5076474;28;20098;-67
2022/08/17 10:55:27;;;;;;;3.55;2.95;;;27.10;48.00;26.00;100592.00;;;;5089334;28;20043;-67
2022/08/17 10:58:23;;;;;;;5.80;3.05;;;27.10;48.00;26.00;100590.00;;;;5086564;28;20036;-67
2022/08/17 11:01:11;;;;;;;4.93;2.50;;;27.10;48.00;26.00;100605.00;;;;5077368;28;20048;-67
2022/08/17 11:04:03;;;;;;;4.38;2.92;;;27.10;48.70;26.00;100601.00;;;;5078095;28;20119;-67
2022/08/17 11:07:01;;;;;;;3.00;2.75;;;27.10;47.90;26.00;100602.00;;;;5076773;28;20062;-67
2022/08/17 11:10:18;;;;;;;3.22;2.92;;;27.10;47.80;26.00;100602.00;;;;5090584;28;20044;-67
2022/08/17 11:13:07;;;;;;;3.25;2.85;;;27.10;47.80;26.00;100593.00;;;;5090988;28;20412;-67
2022/08/17 11:15:58;;;;;;;2.65;2.45;;;27.10;47.70;26.00;100595.00;;;;5088703;28;20039;-67
2022/08/17 11:19:19;;;;;;;3.70;2.67;;;27.10;47.70;26.00;100593.00;;;;5082936;28;20044;-67
2022/08/17 11:22:34;;;;;;;3.38;2.60;;;27.10;47.60;26.00;100590.00;;;;5076549;28;20039;-67
2022/08/17 11:25:31;;;;;;;4.45;2.88;;;27.10;47.60;25.90;100587.00;;;;5091112;28;20039;-67
2022/08/17 11:28:34;;;;;;;3.65;2.78;;;27.10;47.50;25.90;100588.00;;;;5056333;28;20036;-67
2022/08/17 11:31:43;;;;;;;3.88;2.40;;;27.10;47.40;26.00;100590.00;;;;5074288;28;20111;-67
2022/08/17 11:34:30;;;;;;;3.13;2.70;;;27.10;47.30;25.90;100594.00;;;;5079245;28;20591;-67
2022/08/17 11:37:48;;;;;;;4.32;3.00;;;27.10;47.40;26.00;100604.00;;;;5057966;28;20086;-67
2022/08/17 11:40:58;;;;;;;4.32;2.42;;;27.10;47.40;25.90;100602.00;;;;5088769;28;20074;-67
2022/08/17 11:44:21;;;;;;;3.17;2.88;;;27.10;47.40;25.90;100599.00;;;;5079256;28;20051;-67
2022/08/17 11:53:48;;;;;;;4.15;2.83;;;27.10;47.50;25.90;100602.00;;;;5067810;28;20448;-67
2022/08/17 11:56:40;;;;;;;3.22;2.85;;;27.10;47.50;25.90;100600.00;;;;5079045;28;20128;-67
2022/08/17 11:59:32;;;;;;;2.60;2.40;;;27.10;47.50;25.90;100601.00;;;;5076705;28;20036;-67
2022/08/17 12:02:30;;;;;;;3.55;2.30;;;27.00;47.50;25.90;100603.00;;;;5087820;28;20050;-67
2022/08/17 12:05:16;;;;;;;3.10;2.38;;;27.10;47.60;25.90;100601.00;;;;5089996;28;20466;-67
2022/08/17 12:08:11;;;;;;;2.85;2.65;;;27.10;47.50;25.90;100596.00;;;;5089832;28;20042;-67
2022/08/17 12:11:02;;;;;;;6.20;2.70;;;27.10;47.60;26.00;100596.00;;;;5075123;28;20043;-67
2022/08/17 12:13:50;;;;;;;3.60;2.45;;;27.10;47.60;26.00;100597.00;;;;5062154;28;20294;-67
2022/08/17 12:16:37;;;;;;;2.67;2.10;;;27.10;48.30;26.00;100598.00;;;;5076883;28;20039;-67
2022/08/17 12:19:26;;;;;;;3.13;2.30;;;27.10;47.60;26.00;100595.00;;;;5089649;28;20039;-67
2022/08/17 12:22:15;;;;;;;2.67;2.47;;;27.10;47.60;26.00;100596.00;;;;5085514;28;20101;-67
2022/08/17 12:25:16;;;;;;;2.75;2.40;;;27.10;47.60;26.00;100596.00;;;;5082461;28;20713;-67
2022/08/17 12:28:02;;;;;;;3.25;2.75;;;27.10;47.60;26.00;100591.00;;;;5072999;28;20040;-67
2022/08/17 12:30:49;;;;;;;5.22;2.70;;;27.10;47.60;26.00;100591.00;;;;5075310;28;20040;-67
2022/08/17 12:33:35;;;;;;;3.55;2.53;;;27.10;47.70;26.00;100588.00;;;;5073513;28;20046;-67
2022/08/17 12:36:24;;;;;;;2.97;2.67;;;27.10;47.70;26.00;100586.00;;;;5074607;28;20473;-67
2022/08/17 12:39:10;;;;;;;3.22;2.70;;;27.10;47.70;26.00;100590.00;;;;5072164;28;20040;-67
2022/08/17 12:41:58;;;;;;;2.85;2.60;;;27.10;47.70;26.00;100587.00;;;;5073471;28;20046;-67
2022/08/17 12:44:44;;;;;;;2.40;2.20;;;27.10;47.70;26.00;100583.00;;;;5083987;28;20362;-67
2022/08/17 12:47:30;;;;;;;2.75;2.47;;;27.10;47.70;26.00;100592.00;;;;5084597;28;20171;-67
2022/08/17 12:50:17;;;;;;;2.65;2.40;;;27.10;47.70;26.00;100589.00;;;;5058305;28;20528;-67
2022/08/17 12:53:08;;;;;;;5.40;2.53;;;27.10;47.70;26.00;100582.00;;;;5043158;28;20039;-67
2022/08/17 12:55:56;;;;;;;2.63;2.42;;;27.10;47.80;26.00;100593.00;;;;5061355;28;20528;-67
2022/08/17 12:58:52;;;;;;;4.07;2.53;;;27.10;47.80;26.00;100638.00;;;;5063239;28;20124;-67
2022/08/17 13:01:40;;;;;;;17.80;3.28;;;27.10;47.60;26.00;100660.00;;;;5072309;28;20043;-67
2022/08/17 13:04:27;;;;;;;17.10;5.00;;;27.10;48.20;26.00;100701.00;;;;5067113;28;20174;-67
2022/08/17 13:07:29;;;;;;;10.93;3.50;;;27.10;49.10;26.00;100704.00;;;;5082633;28;20043;-67
2022/08/17 13:10:34;;;;;;;10.63;3.75;;;27.10;48.90;26.00;100705.00;;;;5069884;28;20087;-67
2022/08/17 13:13:25;;;;;;;10.95;4.13;;;27.10;49.70;26.00;100688.00;;;;5069629;28;20044;-67